Lake Buena Vista, Florida
Current Conditions -  °F | °C
As of 7:50 AM on Monday 22 Dec 2014 (Local Time) from KISM Reporting Station
Broken Clouds Broken Clouds  
Wind Chill: 66°   Ceiling: 14000
Heat Index: 66°   Visibility: 10mi
Dew Point: 66°   Wind: 7mph
Humidity: 100%   Direction: 120°ESE
Pressure: 30.01"   Gusts: NA
Location:  28.37°N, 81.52°W
Report Text: KISM 221150Z 12006KT 10SM BKN140 19/19 A3001 RMK FIRST
Loading
Personal Weather Stations






























Interactive Weather Map New forecast layout! Learn more

10-Day Weather Forecast

Advertisements
Track Severe Weather on mobile